sensor_id;sensor_type;location;lat;lon;timestamp;pressure;altitude;pressure_sealevel;temperature;humidity
74466;BME280;62916;50.044;15.938;2023-08-20T00:01:21;99442.19;;;28.72;47.22
74466;BME280;62916;50.044;15.938;2023-08-20T00:03:55;99441.23;;;28.69;47.26
74466;BME280;62916;50.044;15.938;2023-08-20T00:06:27;99441.17;;;28.67;47.37
74466;BME280;62916;50.044;15.938;2023-08-20T00:08:58;99440.27;;;28.64;47.40
74466;BME280;62916;50.044;15.938;2023-08-20T00:11:29;99437.28;;;28.62;47.48
74466;BME280;62916;50.044;15.938;2023-08-20T00:14:00;99436.43;;;28.60;47.46
74466;BME280;62916;50.044;15.938;2023-08-20T00:16:32;99440.89;;;28.59;47.56
74466;BME280;62916;50.044;15.938;2023-08-20T00:19:04;99440.23;;;28.56;47.55
74466;BME280;62916;50.044;15.938;2023-08-20T00:21:38;99441.54;;;28.53;47.64
74466;BME280;62916;50.044;15.938;2023-08-20T00:24:12;99435.02;;;28.50;47.73
74466;BME280;62916;50.044;15.938;2023-08-20T00:26:44;99437.64;;;28.50;47.74
74466;BME280;62916;50.044;15.938;2023-08-20T00:29:15;99437.70;;;28.49;47.80
74466;BME280;62916;50.044;15.938;2023-08-20T00:31:46;99435.95;;;28.49;47.77
74466;BME280;62916;50.044;15.938;2023-08-20T00:34:17;99438.66;;;28.46;47.97
74466;BME280;62916;50.044;15.938;2023-08-20T00:36:48;99433.89;;;28.44;47.76
74466;BME280;62916;50.044;15.938;2023-08-20T00:39:19;99434.77;;;28.44;47.89
74466;BME280;62916;50.044;15.938;2023-08-20T00:41:50;99435.95;;;28.43;47.73
74466;BME280;62916;50.044;15.938;2023-08-20T00:44:20;99430.54;;;28.41;47.79
74466;BME280;62916;50.044;15.938;2023-08-20T00:46:52;99431.77;;;28.39;47.85
74466;BME280;62916;50.044;15.938;2023-08-20T00:49:23;99434.57;;;28.36;47.90
74466;BME280;62916;50.044;15.938;2023-08-20T00:51:54;99435.95;;;28.34;48.02
74466;BME280;62916;50.044;15.938;2023-08-20T00:54:26;99440.23;;;28.32;47.92
74466;BME280;62916;50.044;15.938;2023-08-20T00:56:59;99436.08;;;28.33;47.76
74466;BME280;62916;50.044;15.938;2023-08-20T00:59:31;99433.68;;;28.31;47.82
74466;BME280;62916;50.044;15.938;2023-08-20T01:02:02;99435.47;;;28.28;47.75
74466;BME280;62916;50.044;15.938;2023-08-20T01:04:35;99436.73;;;28.23;47.76
74466;BME280;62916;50.044;15.938;2023-08-20T01:07:14;99440.86;;;28.19;47.72
74466;BME280;62916;50.044;15.938;2023-08-20T01:09:55;99441.56;;;28.16;47.77
74466;BME280;62916;50.044;15.938;2023-08-20T01:12:28;99442.52;;;28.13;47.97
74466;BME280;62916;50.044;15.938;2023-08-20T01:14:59;99442.05;;;28.11;47.85
74466;BME280;62916;50.044;15.938;2023-08-20T01:17:30;99438.58;;;28.09;47.85
74466;BME280;62916;50.044;15.938;2023-08-20T01:20:02;99435.72;;;28.06;47.95
74466;BME280;62916;50.044;15.938;2023-08-20T01:22:52;99439.23;;;28.04;47.91
74466;BME280;62916;50.044;15.938;2023-08-20T01:25:42;99444.00;;;28.02;47.99
74466;BME280;62916;50.044;15.938;2023-08-20T01:28:21;99440.70;;;28.01;47.99
74466;BME280;62916;50.044;15.938;2023-08-20T01:30:52;99440.09;;;27.97;48.13
74466;BME280;62916;50.044;15.938;2023-08-20T01:33:24;99441.73;;;27.97;47.96
74466;BME280;62916;50.044;15.938;2023-08-20T01:35:56;99443.06;;;27.98;47.81
74466;BME280;62916;50.044;15.938;2023-08-20T01:38:26;99444.63;;;27.98;47.72
74466;BME280;62916;50.044;15.938;2023-08-20T01:40:57;99444.73;;;27.97;47.76
74466;BME280;62916;50.044;15.938;2023-08-20T01:43:29;99451.11;;;27.95;47.85
74466;BME280;62916;50.044;15.938;2023-08-20T01:46:00;99446.11;;;27.94;47.68
74466;BME280;62916;50.044;15.938;2023-08-20T01:48:31;99449.36;;;27.93;47.70
74466;BME280;62916;50.044;15.938;2023-08-20T01:51:02;99449.81;;;27.92;47.70
74466;BME280;62916;50.044;15.938;2023-08-20T01:53:33;99454.07;;;27.91;47.87
74466;BME280;62916;50.044;15.938;2023-08-20T01:56:04;99456.18;;;27.90;47.74
74466;BME280;62916;50.044;15.938;2023-08-20T01:58:40;99457.87;;;27.92;47.76
74466;BME280;62916;50.044;15.938;2023-08-20T02:01:12;99461.30;;;27.95;47.78
74466;BME280;62916;50.044;15.938;2023-08-20T02:03:43;99461.11;;;27.97;47.71
74466;BME280;62916;50.044;15.938;2023-08-20T02:06:14;99454.54;;;27.97;47.70
74466;BME280;62916;50.044;15.938;2023-08-20T02:08:44;99454.32;;;27.98;47.71
74466;BME280;62916;50.044;15.938;2023-08-20T02:11:15;99459.07;;;28.00;47.89
74466;BME280;62916;50.044;15.938;2023-08-20T02:13:46;99459.72;;;28.00;47.84
74466;BME280;62916;50.044;15.938;2023-08-20T02:16:17;99462.74;;;28.00;47.95
74466;BME280;62916;50.044;15.938;2023-08-20T02:18:48;99464.39;;;28.00;47.78
74466;BME280;62916;50.044;15.938;2023-08-20T02:21:19;99463.20;;;28.01;47.78
74466;BME280;62916;50.044;15.938;2023-08-20T02:23:50;99462.55;;;28.02;47.93
74466;BME280;62916;50.044;15.938;2023-08-20T02:26:21;99460.10;;;28.01;47.86
74466;BME280;62916;50.044;15.938;2023-08-20T02:28:51;99462.02;;;28.02;47.96
74466;BME280;62916;50.044;15.938;2023-08-20T02:31:22;99463.92;;;28.04;47.90
74466;BME280;62916;50.044;15.938;2023-08-20T02:33:53;99463.05;;;28.04;47.78
74466;BME280;62916;50.044;15.938;2023-08-20T02:36:24;99467.04;;;28.04;47.78
74466;BME280;62916;50.044;15.938;2023-08-20T02:38:55;99464.23;;;28.03;47.68
74466;BME280;62916;50.044;15.938;2023-08-20T02:41:26;99460.65;;;28.04;47.79
74466;BME280;62916;50.044;15.938;2023-08-20T02:43:57;99468.75;;;28.02;47.63
74466;BME280;62916;50.044;15.938;2023-08-20T02:46:28;99464.27;;;27.99;47.81
74466;BME280;62916;50.044;15.938;2023-08-20T02:48:59;99469.34;;;28.00;47.66
74466;BME280;62916;50.044;15.938;2023-08-20T02:51:30;99465.73;;;27.93;47.54
74466;BME280;62916;50.044;15.938;2023-08-20T02:54:01;99476.52;;;27.97;47.68
74466;BME280;62916;50.044;15.938;2023-08-20T02:56:32;99476.04;;;27.95;47.57
74466;BME280;62916;50.044;15.938;2023-08-20T02:59:03;99477.89;;;27.94;47.65
74466;BME280;62916;50.044;15.938;2023-08-20T03:01:34;99478.73;;;27.93;47.57
74466;BME280;62916;50.044;15.938;2023-08-20T03:04:06;99476.80;;;27.93;47.65
74466;BME280;62916;50.044;15.938;2023-08-20T03:06:37;99470.84;;;27.93;47.55
74466;BME280;62916;50.044;15.938;2023-08-20T03:09:08;99469.06;;;27.93;47.63
74466;BME280;62916;50.044;15.938;2023-08-20T03:11:39;99467.56;;;27.92;47.56
74466;BME280;62916;50.044;15.938;2023-08-20T03:14:10;99467.96;;;27.92;47.57
74466;BME280;62916;50.044;15.938;2023-08-20T03:16:41;99466.70;;;27.93;47.46
74466;BME280;62916;50.044;15.938;2023-08-20T03:19:13;99467.85;;;27.93;47.42
74466;BME280;62916;50.044;15.938;2023-08-20T03:21:44;99467.16;;;27.95;47.45
74466;BME280;62916;50.044;15.938;2023-08-20T03:24:15;99468.77;;;27.92;47.45
74466;BME280;62916;50.044;15.938;2023-08-20T03:26:45;99472.50;;;27.88;47.30
74466;BME280;62916;50.044;15.938;2023-08-20T03:29:17;99474.94;;;27.88;47.25
74466;BME280;62916;50.044;15.938;2023-08-20T03:31:47;99475.32;;;27.87;47.18
74466;BME280;62916;50.044;15.938;2023-08-20T03:34:18;99475.55;;;27.87;47.17
74466;BME280;62916;50.044;15.938;2023-08-20T03:36:49;99474.39;;;27.86;47.07
74466;BME280;62916;50.044;15.938;2023-08-20T03:39:21;99475.64;;;27.84;47.13
74466;BME280;62916;50.044;15.938;2023-08-20T03:41:53;99468.80;;;27.76;47.08
74466;BME280;62916;50.044;15.938;2023-08-20T03:44:24;99477.74;;;27.79;47.04
74466;BME280;62916;50.044;15.938;2023-08-20T03:46:55;99488.36;;;27.80;46.94
74466;BME280;62916;50.044;15.938;2023-08-20T03:49:26;99489.49;;;27.79;46.94
74466;BME280;62916;50.044;15.938;2023-08-20T03:51:57;99485.91;;;27.76;46.91
74466;BME280;62916;50.044;15.938;2023-08-20T03:54:28;99486.40;;;27.73;46.91
74466;BME280;62916;50.044;15.938;2023-08-20T03:56:59;99488.33;;;27.76;47.02
74466;BME280;62916;50.044;15.938;2023-08-20T03:59:30;99491.28;;;27.76;47.06
74466;BME280;62916;50.044;15.938;2023-08-20T04:02:01;99490.14;;;27.76;46.90
74466;BME280;62916;50.044;15.938;2023-08-20T04:04:32;99491.11;;;27.76;46.96
74466;BME280;62916;50.044;15.938;2023-08-20T04:07:03;99484.75;;;27.76;47.05
74466;BME280;62916;50.044;15.938;2023-08-20T04:09:35;99489.79;;;27.75;47.00
74466;BME280;62916;50.044;15.938;2023-08-20T04:12:07;99491.27;;;27.75;47.07
74466;BME280;62916;50.044;15.938;2023-08-20T04:14:38;99491.64;;;27.75;47.04
74466;BME280;62916;50.044;15.938;2023-08-20T04:17:09;99500.12;;;27.75;46.98
74466;BME280;62916;50.044;15.938;2023-08-20T04:19:39;99500.21;;;27.75;47.04
74466;BME280;62916;50.044;15.938;2023-08-20T04:22:10;99501.12;;;27.75;46.94
74466;BME280;62916;50.044;15.938;2023-08-20T04:24:42;99505.30;;;27.76;47.04
74466;BME280;62916;50.044;15.938;2023-08-20T04:27:13;99504.83;;;27.77;46.82
74466;BME280;62916;50.044;15.938;2023-08-20T04:29:44;99511.35;;;27.77;47.11
74466;BME280;62916;50.044;15.938;2023-08-20T04:32:15;99509.48;;;27.77;47.03
74466;BME280;62916;50.044;15.938;2023-08-20T04:34:50;99508.03;;;27.77;46.92
74466;BME280;62916;50.044;15.938;2023-08-20T04:37:22;99504.46;;;27.76;46.82
74466;BME280;62916;50.044;15.938;2023-08-20T04:39:54;99505.54;;;27.76;46.86
74466;BME280;62916;50.044;15.938;2023-08-20T04:42:24;99510.21;;;27.75;47.19
74466;BME280;62916;50.044;15.938;2023-08-20T04:44:55;99513.11;;;27.74;47.05
74466;BME280;62916;50.044;15.938;2023-08-20T04:47:26;99514.38;;;27.75;47.19
74466;BME280;62916;50.044;15.938;2023-08-20T04:49:57;99520.62;;;27.77;46.94
74466;BME280;62916;50.044;15.938;2023-08-20T04:52:28;99519.18;;;27.78;47.13
74466;BME280;62916;50.044;15.938;2023-08-20T04:54:59;99520.27;;;27.79;47.09
74466;BME280;62916;50.044;15.938;2023-08-20T04:57:30;99518.08;;;27.79;47.19
74466;BME280;62916;50.044;15.938;2023-08-20T05:00:02;99516.23;;;27.80;47.15
74466;BME280;62916;50.044;15.938;2023-08-20T05:02:33;99518.45;;;27.81;47.22
74466;BME280;62916;50.044;15.938;2023-08-20T05:05:05;99520.00;;;27.81;47.21
74466;BME280;62916;50.044;15.938;2023-08-20T05:07:36;99523.34;;;27.81;47.37
74466;BME280;62916;50.044;15.938;2023-08-20T05:10:08;99526.01;;;27.80;47.48
74466;BME280;62916;50.044;15.938;2023-08-20T05:12:39;99525.31;;;27.79;47.42
74466;BME280;62916;50.044;15.938;2023-08-20T05:15:12;99528.10;;;27.79;47.52
74466;BME280;62916;50.044;15.938;2023-08-20T05:17:42;99532.84;;;27.80;47.27
74466;BME280;62916;50.044;15.938;2023-08-20T05:20:14;99533.11;;;27.81;47.28
74466;BME280;62916;50.044;15.938;2023-08-20T05:22:45;99535.95;;;27.81;47.33
74466;BME280;62916;50.044;15.938;2023-08-20T05:25:16;99533.73;;;27.82;47.48
74466;BME280;62916;50.044;15.938;2023-08-20T05:27:47;99533.73;;;27.82;47.46
74466;BME280;62916;50.044;15.938;2023-08-20T05:30:18;99535.55;;;27.83;47.71
74466;BME280;62916;50.044;15.938;2023-08-20T05:32:49;99533.06;;;27.84;47.63
74466;BME280;62916;50.044;15.938;2023-08-20T05:35:20;99533.99;;;27.85;47.59
74466;BME280;62916;50.044;15.938;2023-08-20T05:37:51;99531.48;;;27.86;47.70
74466;BME280;62916;50.044;15.938;2023-08-20T05:40:22;99530.71;;;27.87;47.69
74466;BME280;62916;50.044;15.938;2023-08-20T05:42:53;99530.98;;;27.88;47.87
74466;BME280;62916;50.044;15.938;2023-08-20T05:45:24;99533.97;;;27.87;48.06
74466;BME280;62916;50.044;15.938;2023-08-20T05:47:55;99535.08;;;27.86;48.24
74466;BME280;62916;50.044;15.938;2023-08-20T05:50:26;99538.71;;;27.88;48.46
74466;BME280;62916;50.044;15.938;2023-08-20T05:52:57;99542.73;;;27.89;48.16
74466;BME280;62916;50.044;15.938;2023-08-20T05:55:28;99540.08;;;27.87;48.36
74466;BME280;62916;50.044;15.938;2023-08-20T05:57:59;99543.84;;;27.88;48.39
74466;BME280;62916;50.044;15.938;2023-08-20T06:00:30;99543.35;;;27.88;48.44
74466;BME280;62916;50.044;15.938;2023-08-20T06:03:01;99540.98;;;27.83;48.59
74466;BME280;62916;50.044;15.938;2023-08-20T06:05:32;99543.73;;;27.87;48.52
74466;BME280;62916;50.044;15.938;2023-08-20T06:08:03;99542.80;;;27.86;48.67
74466;BME280;62916;50.044;15.938;2023-08-20T06:10:34;99541.05;;;27.87;48.86
74466;BME280;62916;50.044;15.938;2023-08-20T06:13:05;99543.71;;;27.89;48.92
74466;BME280;62916;50.044;15.938;2023-08-20T06:15:36;99547.45;;;27.89;48.84
74466;BME280;62916;50.044;15.938;2023-08-20T06:18:08;99551.19;;;27.91;48.75
74466;BME280;62916;50.044;15.938;2023-08-20T06:20:38;99556.90;;;27.94;49.01
74466;BME280;62916;50.044;15.938;2023-08-20T06:23:09;99558.11;;;27.96;48.93
74466;BME280;62916;50.044;15.938;2023-08-20T06:25:56;99557.41;;;27.97;49.04
74466;BME280;62916;50.044;15.938;2023-08-20T06:28:26;99554.45;;;27.98;49.14
74466;BME280;62916;50.044;15.938;2023-08-20T06:30:57;99551.54;;;28.00;48.99
74466;BME280;62916;50.044;15.938;2023-08-20T06:33:28;99551.89;;;28.01;48.91
74466;BME280;62916;50.044;15.938;2023-08-20T06:35:59;99546.17;;;28.00;48.86
74466;BME280;62916;50.044;15.938;2023-08-20T06:38:30;99545.02;;;28.05;49.11
74466;BME280;62916;50.044;15.938;2023-08-20T06:41:01;99547.19;;;28.06;49.05
74466;BME280;62916;50.044;15.938;2023-08-20T06:43:32;99547.17;;;28.08;48.97
74466;BME280;62916;50.044;15.938;2023-08-20T06:46:03;99547.59;;;28.09;49.08
74466;BME280;62916;50.044;15.938;2023-08-20T06:48:34;99546.90;;;28.11;49.15
74466;BME280;62916;50.044;15.938;2023-08-20T06:51:12;99544.06;;;28.11;49.27
74466;BME280;62916;50.044;15.938;2023-08-20T06:53:43;99547.77;;;28.13;49.23
74466;BME280;62916;50.044;15.938;2023-08-20T06:56:14;99544.21;;;28.13;49.24
74466;BME280;62916;50.044;15.938;2023-08-20T06:58:45;99547.04;;;28.17;49.38
74466;BME280;62916;50.044;15.938;2023-08-20T07:01:17;99547.10;;;28.19;49.30
74466;BME280;62916;50.044;15.938;2023-08-20T07:03:47;99546.52;;;28.22;49.34
74466;BME280;62916;50.044;15.938;2023-08-20T07:06:19;99548.39;;;28.24;49.34
74466;BME280;62916;50.044;15.938;2023-08-20T07:08:50;99551.24;;;28.26;49.38
74466;BME280;62916;50.044;15.938;2023-08-20T07:11:21;99555.20;;;28.28;49.37
74466;BME280;62916;50.044;15.938;2023-08-20T07:13:52;99555.97;;;28.30;49.31
74466;BME280;62916;50.044;15.938;2023-08-20T07:16:23;99557.31;;;28.31;49.29
74466;BME280;62916;50.044;15.938;2023-08-20T07:18:54;99560.90;;;28.34;49.42
74466;BME280;62916;50.044;15.938;2023-08-20T07:21:25;99559.20;;;28.36;49.38
74466;BME280;62916;50.044;15.938;2023-08-20T07:23:56;99565.54;;;28.38;49.38
74466;BME280;62916;50.044;15.938;2023-08-20T07:26:27;99563.13;;;28.40;49.35
74466;BME280;62916;50.044;15.938;2023-08-20T07:28:59;99568.09;;;28.42;49.34
74466;BME280;62916;50.044;15.938;2023-08-20T07:31:31;99564.79;;;28.44;49.28
74466;BME280;62916;50.044;15.938;2023-08-20T07:34:03;99566.19;;;28.44;49.30
74466;BME280;62916;50.044;15.938;2023-08-20T07:36:41;99570.54;;;28.45;49.25
74466;BME280;62916;50.044;15.938;2023-08-20T07:39:12;99572.84;;;28.46;49.27
74466;BME280;62916;50.044;15.938;2023-08-20T07:41:47;99574.10;;;28.47;49.37
74466;BME280;62916;50.044;15.938;2023-08-20T07:44:18;99573.48;;;28.48;49.44
74466;BME280;62916;50.044;15.938;2023-08-20T07:46:49;99576.95;;;28.49;49.48
74466;BME280;62916;50.044;15.938;2023-08-20T07:49:20;99576.80;;;28.51;49.46
74466;BME280;62916;50.044;15.938;2023-08-20T07:51:51;99574.83;;;28.52;49.47
74466;BME280;62916;50.044;15.938;2023-08-20T07:54:23;99576.06;;;28.53;49.51
74466;BME280;62916;50.044;15.938;2023-08-20T07:56:54;99575.67;;;28.53;49.73
74466;BME280;62916;50.044;15.938;2023-08-20T07:59:25;99579.23;;;28.55;49.87
74466;BME280;62916;50.044;15.938;2023-08-20T08:01:56;99577.51;;;28.55;50.12
74466;BME280;62916;50.044;15.938;2023-08-20T08:04:27;99579.58;;;28.56;50.26
74466;BME280;62916;50.044;15.938;2023-08-20T08:06:58;99579.91;;;28.56;50.24
74466;BME280;62916;50.044;15.938;2023-08-20T08:09:31;99578.58;;;28.55;50.16
74466;BME280;62916;50.044;15.938;2023-08-20T08:12:03;99581.43;;;28.55;50.34
74466;BME280;62916;50.044;15.938;2023-08-20T08:14:35;99584.19;;;28.55;50.43
74466;BME280;62916;50.044;15.938;2023-08-20T08:17:06;99580.94;;;28.55;50.54
74466;BME280;62916;50.044;15.938;2023-08-20T08:19:37;99586.59;;;28.56;50.66
74466;BME280;62916;50.044;15.938;2023-08-20T08:22:08;99584.61;;;28.55;50.66
74466;BME280;62916;50.044;15.938;2023-08-20T08:24:38;99586.16;;;28.58;50.67
74466;BME280;62916;50.044;15.938;2023-08-20T08:27:11;99590.06;;;28.58;50.74
74466;BME280;62916;50.044;15.938;2023-08-20T08:29:42;99590.46;;;28.57;50.76
74466;BME280;62916;50.044;15.938;2023-08-20T08:32:14;99590.73;;;28.58;50.78
74466;BME280;62916;50.044;15.938;2023-08-20T08:34:45;99587.52;;;28.57;50.86
74466;BME280;62916;50.044;15.938;2023-08-20T08:37:16;99584.57;;;28.56;50.99
74466;BME280;62916;50.044;15.938;2023-08-20T08:39:47;99582.20;;;28.56;51.04
74466;BME280;62916;50.044;15.938;2023-08-20T08:42:18;99579.91;;;28.56;50.96
74466;BME280;62916;50.044;15.938;2023-08-20T08:44:53;99585.55;;;28.56;51.03
74466;BME280;62916;50.044;15.938;2023-08-20T08:47:26;99578.70;;;28.56;50.97
74466;BME280;62916;50.044;15.938;2023-08-20T08:49:57;99579.44;;;28.56;50.99
74466;BME280;62916;50.044;15.938;2023-08-20T08:52:29;99582.29;;;28.57;50.95
74466;BME280;62916;50.044;15.938;2023-08-20T08:55:02;99586.71;;;28.57;51.11
74466;BME280;62916;50.044;15.938;2023-08-20T08:57:34;99584.14;;;28.53;51.19
74466;BME280;62916;50.044;15.938;2023-08-20T09:00:07;99591.70;;;28.58;51.16
74466;BME280;62916;50.044;15.938;2023-08-20T09:02:38;99589.39;;;28.57;51.19
74466;BME280;62916;50.044;15.938;2023-08-20T09:05:09;99591.38;;;28.58;51.24
74466;BME280;62916;50.044;15.938;2023-08-20T09:07:44;99592.54;;;28.58;51.22
74466;BME280;62916;50.044;15.938;2023-08-20T09:10:18;99592.65;;;28.60;51.31
74466;BME280;62916;50.044;15.938;2023-08-20T09:12:49;99593.56;;;28.60;51.35
74466;BME280;62916;50.044;15.938;2023-08-20T09:15:20;99594.50;;;28.62;51.34
74466;BME280;62916;50.044;15.938;2023-08-20T09:17:51;99592.31;;;28.62;51.40
74466;BME280;62916;50.044;15.938;2023-08-20T09:20:35;99598.55;;;28.66;51.14
74466;BME280;62916;50.044;15.938;2023-08-20T09:23:12;99604.57;;;28.69;51.07
74466;BME280;62916;50.044;15.938;2023-08-20T09:25:44;99607.64;;;28.71;51.09
74466;BME280;62916;50.044;15.938;2023-08-20T09:28:15;99613.91;;;28.73;51.05
74466;BME280;62916;50.044;15.938;2023-08-20T09:30:58;99617.16;;;28.75;50.96
74466;BME280;62916;50.044;15.938;2023-08-20T09:33:31;99616.45;;;28.78;50.93
74466;BME280;62916;50.044;15.938;2023-08-20T09:36:04;99617.84;;;28.81;50.90
74466;BME280;62916;50.044;15.938;2023-08-20T09:38:38;99616.21;;;28.84;50.83
74466;BME280;62916;50.044;15.938;2023-08-20T09:41:10;99619.90;;;28.87;50.75
74466;BME280;62916;50.044;15.938;2023-08-20T09:43:42;99620.80;;;28.90;50.63
74466;BME280;62916;50.044;15.938;2023-08-20T09:46:15;99621.17;;;28.92;50.53
74466;BME280;62916;50.044;15.938;2023-08-20T09:48:49;99622.38;;;28.94;50.57
74466;BME280;62916;50.044;15.938;2023-08-20T09:51:26;99629.17;;;28.98;50.61
74466;BME280;62916;50.044;15.938;2023-08-20T09:54:10;99624.69;;;29.01;50.38
74466;BME280;62916;50.044;15.938;2023-08-20T09:56:44;99624.36;;;29.04;50.39
74466;BME280;62916;50.044;15.938;2023-08-20T09:59:17;99620.55;;;29.05;50.50
74466;BME280;62916;50.044;15.938;2023-08-20T10:01:48;99618.80;;;29.06;50.69
74466;BME280;62916;50.044;15.938;2023-08-20T10:04:19;99611.18;;;29.03;50.73
74466;BME280;62916;50.044;15.938;2023-08-20T10:06:53;99616.64;;;29.08;50.53
74466;BME280;62916;50.044;15.938;2023-08-20T10:09:23;99612.77;;;29.10;50.63
74466;BME280;62916;50.044;15.938;2023-08-20T10:11:55;99613.89;;;29.09;50.60
74466;BME280;62916;50.044;15.938;2023-08-20T10:14:29;99620.23;;;29.11;50.55
74466;BME280;62916;50.044;15.938;2023-08-20T10:17:01;99622.52;;;29.11;50.69
74466;BME280;62916;50.044;15.938;2023-08-20T10:19:37;99623.83;;;29.12;50.68
74466;BME280;62916;50.044;15.938;2023-08-20T10:22:09;99617.89;;;29.12;50.58
74466;BME280;62916;50.044;15.938;2023-08-20T10:24:46;99617.35;;;29.16;50.52
74466;BME280;62916;50.044;15.938;2023-08-20T10:27:27;99616.19;;;29.18;50.65
74466;BME280;62916;50.044;15.938;2023-08-20T10:30:00;99608.42;;;29.20;50.58
74466;BME280;62916;50.044;15.938;2023-08-20T10:32:48;99606.08;;;29.18;50.40
74466;BME280;62916;50.044;15.938;2023-08-20T10:35:25;99608.42;;;29.24;50.51
74466;BME280;62916;50.044;15.938;2023-08-20T10:38:07;99602.79;;;29.24;50.24
74466;BME280;62916;50.044;15.938;2023-08-20T10:40:55;99601.59;;;29.25;50.40
74466;BME280;62916;50.044;15.938;2023-08-20T10:43:28;99605.80;;;29.29;50.27
74466;BME280;62916;50.044;15.938;2023-08-20T10:46:13;99599.71;;;29.31;50.14
74466;BME280;62916;50.044;15.938;2023-08-20T10:48:46;99598.50;;;29.32;50.17
74466;BME280;62916;50.044;15.938;2023-08-20T10:51:18;99599.34;;;29.33;50.25
74466;BME280;62916;50.044;15.938;2023-08-20T10:54:05;99597.02;;;29.35;49.93
74466;BME280;62916;50.044;15.938;2023-08-20T10:56:44;99592.59;;;29.36;50.01
74466;BME280;62916;50.044;15.938;2023-08-20T10:59:23;99597.24;;;29.39;49.71
74466;BME280;62916;50.044;15.938;2023-08-20T11:01:57;99595.52;;;29.41;49.62
74466;BME280;62916;50.044;15.938;2023-08-20T11:04:30;99594.77;;;29.41;49.40
74466;BME280;62916;50.044;15.938;2023-08-20T11:07:05;99594.12;;;29.44;49.34
74466;BME280;62916;50.044;15.938;2023-08-20T11:09:36;99593.52;;;29.46;49.17
74466;BME280;62916;50.044;15.938;2023-08-20T11:12:09;99591.29;;;29.48;49.11
74466;BME280;62916;50.044;15.938;2023-08-20T11:14:40;99595.66;;;29.50;49.10
74466;BME280;62916;50.044;15.938;2023-08-20T11:17:11;99593.91;;;29.52;49.26
74466;BME280;62916;50.044;15.938;2023-08-20T11:19:49;99594.10;;;29.54;49.21
74466;BME280;62916;50.044;15.938;2023-08-20T11:22:36;99593.52;;;29.55;49.31
74466;BME280;62916;50.044;15.938;2023-08-20T11:25:12;99593.58;;;29.57;49.18
74466;BME280;62916;50.044;15.938;2023-08-20T11:27:43;99597.40;;;29.57;49.28
74466;BME280;62916;50.044;15.938;2023-08-20T11:30:16;99592.88;;;29.59;49.29
74466;BME280;62916;50.044;15.938;2023-08-20T11:32:48;99592.42;;;29.60;49.29
74466;BME280;62916;50.044;15.938;2023-08-20T11:35:23;99592.27;;;29.62;49.27
74466;BME280;62916;50.044;15.938;2023-08-20T11:37:54;99590.08;;;29.62;49.13
74466;BME280;62916;50.044;15.938;2023-08-20T11:40:26;99590.12;;;29.63;49.21
74466;BME280;62916;50.044;15.938;2023-08-20T11:42:57;99587.50;;;29.67;49.13
74466;BME280;62916;50.044;15.938;2023-08-20T11:45:29;99581.08;;;29.68;48.86
74466;BME280;62916;50.044;15.938;2023-08-20T11:48:01;99585.11;;;29.69;48.92
74466;BME280;62916;50.044;15.938;2023-08-20T11:50:33;99584.08;;;29.70;48.76
74466;BME280;62916;50.044;15.938;2023-08-20T11:53:07;99580.50;;;29.71;48.66
74466;BME280;62916;50.044;15.938;2023-08-20T11:55:40;99582.56;;;29.72;48.62
74466;BME280;62916;50.044;15.938;2023-08-20T11:58:14;99583.80;;;29.73;48.51
74466;BME280;62916;50.044;15.938;2023-08-20T12:00:49;99583.85;;;29.75;48.62
74466;BME280;62916;50.044;15.938;2023-08-20T12:03:21;99585.04;;;29.76;48.82
74466;BME280;62916;50.044;15.938;2023-08-20T12:05:52;99585.70;;;29.77;48.64
74466;BME280;62916;50.044;15.938;2023-08-20T12:08:23;99580.86;;;29.76;48.64
74466;BME280;62916;50.044;15.938;2023-08-20T12:10:59;99584.95;;;29.83;48.42
74466;BME280;62916;50.044;15.938;2023-08-20T12:13:31;99582.46;;;29.85;48.22
74466;BME280;62916;50.044;15.938;2023-08-20T12:16:02;99577.09;;;29.82;48.49
74466;BME280;62916;50.044;15.938;2023-08-20T12:18:33;99583.70;;;29.88;48.39
74466;BME280;62916;50.044;15.938;2023-08-20T12:21:04;99579.70;;;29.92;48.43
74466;BME280;62916;50.044;15.938;2023-08-20T12:23:36;99575.29;;;29.95;48.76
74466;BME280;62916;50.044;15.938;2023-08-20T12:26:07;99569.96;;;29.97;48.64
74466;BME280;62916;50.044;15.938;2023-08-20T12:28:38;99568.38;;;29.99;48.29
74466;BME280;62916;50.044;15.938;2023-08-20T12:31:11;99567.91;;;30.00;48.37
74466;BME280;62916;50.044;15.938;2023-08-20T12:33:42;99565.33;;;30.02;48.37
74466;BME280;62916;50.044;15.938;2023-08-20T12:36:13;99557.27;;;29.99;48.40
74466;BME280;62916;50.044;15.938;2023-08-20T12:38:45;99561.63;;;30.05;48.59
74466;BME280;62916;50.044;15.938;2023-08-20T12:41:16;99561.75;;;30.07;48.32
74466;BME280;62916;50.044;15.938;2023-08-20T12:43:47;99561.12;;;30.08;48.59
74466;BME280;62916;50.044;15.938;2023-08-20T12:46:19;99563.36;;;30.09;48.60
74466;BME280;62916;50.044;15.938;2023-08-20T12:48:50;99565.66;;;30.10;48.45
74466;BME280;62916;50.044;15.938;2023-08-20T12:51:22;99559.89;;;30.11;48.38
74466;BME280;62916;50.044;15.938;2023-08-20T12:53:53;99561.31;;;30.12;48.23
74466;BME280;62916;50.044;15.938;2023-08-20T12:56:23;99559.11;;;30.13;48.18
74466;BME280;62916;50.044;15.938;2023-08-20T12:58:54;99555.08;;;30.15;47.97
74466;BME280;62916;50.044;15.938;2023-08-20T13:01:25;99544.23;;;30.12;47.92
74466;BME280;62916;50.044;15.938;2023-08-20T13:03:58;99550.97;;;30.18;48.07
74466;BME280;62916;50.044;15.938;2023-08-20T13:06:30;99547.77;;;30.20;48.15
74466;BME280;62916;50.044;15.938;2023-08-20T13:09:02;99549.04;;;30.23;48.22
74466;BME280;62916;50.044;15.938;2023-08-20T13:11:34;99543.83;;;30.25;48.34
74466;BME280;62916;50.044;15.938;2023-08-20T13:14:08;99548.02;;;30.25;48.40
74466;BME280;62916;50.044;15.938;2023-08-20T13:16:40;99545.04;;;30.27;48.31